Time,TemperatureF,DewpointF,PressureIn,WindDirection,WindDirectionDegrees,WindSpeedMPH,WindSpeedGustMPH,Humidity,HourlyPrecipIn,Conditions,Clouds,dailyrainin,SoftwareType,DateUTC
2013-07-31 07:29:00,72.1,71.2,29.99,South,189,2.0,7.0,97,0.08,,---,0.00,VWS V13.01,2013-07-31 12:29:00,
2013-07-31 07:31:00,72.2,71.3,29.99,South,189,3.0,7.0,97,0.08,,---,0.00,VWS V13.01,2013-07-31 12:31:00,
2013-07-31 07:36:00,72.2,71.3,29.99,South,189,3.0,4.0,97,0.01,,---,0.00,VWS V13.01,2013-07-31 12:36:00,
2013-07-31 07:41:00,72.4,71.5,29.99,South,188,3.0,4.0,97,0.01,,---,0.00,VWS V13.01,2013-07-31 12:41:00,
2013-07-31 07:46:00,72.5,71.6,30.00,South,188,0.0,4.0,97,0.01,,---,0.00,VWS V13.01,2013-07-31 12:46:00,
2013-07-31 07:51:00,72.7,71.8,30.00,South,189,2.0,4.0,97,0.01,,---,0.00,VWS V13.01,2013-07-31 12:51:00,
2013-07-31 07:56:00,72.7,71.8,30.00,South,188,0.0,4.0,97,0.01,,---,0.00,VWS V13.01,2013-07-31 12:56:00,
2013-07-31 08:01:00,72.8,71.9,30.00,South,189,3.0,3.0,97,0.01,,---,0.00,VWS V13.01,2013-07-31 13:01:00,
2013-07-31 08:06:00,73.0,72.1,30.00,South,188,2.0,4.0,97,0.01,,---,0.00,VWS V13.01,2013-07-31 13:06:00,
2013-07-31 08:11:00,73.3,72.4,30.00,South,188,4.0,4.0,97,0.01,,---,0.00,VWS V13.01,2013-07-31 13:11:00,
2013-07-31 08:16:00,73.5,72.6,30.00,South,188,3.0,4.0,97,0.01,,---,0.00,VWS V13.01,2013-07-31 13:16:00,
2013-07-31 08:21:00,73.7,72.8,30.00,South,189,3.0,5.0,97,0.01,,---,0.00,VWS V13.01,2013-07-31 13:21:00,
2013-07-31 08:26:00,73.8,72.9,30.00,South,189,3.0,6.0,97,0.01,,---,0.00,VWS V13.01,2013-07-31 13:26:00,
2013-07-31 08:31:00,74.0,73.1,30.00,South,189,3.0,6.0,97,0.01,,---,0.00,VWS V13.01,2013-07-31 13:31:00,
2013-07-31 08:36:00,74.3,73.4,30.00,South,189,2.0,5.0,97,0.00,,---,0.00,VWS V13.01,2013-07-31 13:36:00,
2013-07-31 08:41:00,74.6,73.7,30.00,South,189,0.0,5.0,97,0.00,,---,0.00,VWS V13.01,2013-07-31 13:41:00,
2013-07-31 08:46:00,74.8,73.6,29.99,South,189,0.0,5.0,96,0.00,,---,0.00,VWS V13.01,2013-07-31 13:46:00,
2013-07-31 08:51:00,74.9,73.7,29.99,South,188,0.0,5.0,96,0.00,,---,0.00,VWS V13.01,2013-07-31 13:51:00,
2013-07-31 08:56:00,75.2,74.0,29.99,South,188,0.0,5.0,96,0.00,,---,0.00,VWS V13.01,2013-07-31 13:56:00,
2013-07-31 09:01:00,75.4,74.2,29.99,South,188,0.0,5.0,96,0.00,,---,0.00,VWS V13.01,2013-07-31 14:01:00,
2013-07-31 09:06:00,75.5,74.3,29.99,South,189,0.0,0.0,96,0.00,,---,0.00,VWS V13.01,2013-07-31 14:06:00,
2013-07-31 11:36:00,78.9,76.1,29.99,South,188,3.0,4.0,91,0.00,,---,0.00,VWS V13.01,2013-07-31 16:36:00,
2013-07-31 11:41:00,79.2,76.7,29.99,South,188,0.0,4.0,92,0.00,,---,0.00,VWS V13.01,2013-07-31 16:41:00,
2013-07-31 11:46:00,79.1,76.2,29.99,South,189,4.0,5.0,91,0.00,,---,0.00,VWS V13.01,2013-07-31 16:46:00,
2013-07-31 11:51:00,79.3,76.8,29.99,South,189,0.0,5.0,92,0.00,,---,0.00,VWS V13.01,2013-07-31 16:51:00,
2013-07-31 11:56:00,79.4,76.2,29.99,South,188,0.0,5.0,90,0.00,,---,0.00,VWS V13.01,2013-07-31 16:56:00,
2013-07-31 12:01:00,80.0,76.8,29.99,South,189,5.0,5.0,90,0.00,,---,0.00,VWS V13.01,2013-07-31 17:01:00,
2013-07-31 12:06:00,80.2,76.7,29.99,South,189,0.0,5.0,89,0.00,,---,0.00,VWS V13.01,2013-07-31 17:06:00,
2013-07-31 12:11:00,80.3,76.1,29.98,South,188,0.0,5.0,87,0.00,,---,0.00,VWS V13.01,2013-07-31 17:11:00,
2013-07-31 12:16:00,80.6,76.7,29.98,South,188,0.0,5.0,88,0.00,,---,0.00,VWS V13.01,2013-07-31 17:16:00,
2013-07-31 12:21:00,80.7,76.5,29.98,South,189,0.0,5.0,87,0.00,,---,0.00,VWS V13.01,2013-07-31 17:21:00,
2013-07-31 12:26:00,81.2,77.0,29.98,South,189,4.0,5.0,87,0.00,,---,0.00,VWS V13.01,2013-07-31 17:26:00,
2013-07-31 12:31:00,81.3,77.4,29.98,South,189,0.0,5.0,88,0.00,,---,0.00,VWS V13.01,2013-07-31 17:31:00,
2013-07-31 12:36:00,81.6,78.1,29.97,South,188,4.0,5.0,89,0.00,,---,0.00,VWS V13.01,2013-07-31 17:36:00,
2013-07-31 12:41:00,81.8,77.6,29.97,South,189,3.0,6.0,87,0.00,,---,0.00,VWS V13.01,2013-07-31 17:41:00,
2013-07-31 12:46:00,81.3,76.7,29.98,South,189,3.0,10.0,86,0.00,,---,0.00,VWS V13.01,2013-07-31 17:46:00,
2013-07-31 12:51:00,80.7,76.8,29.97,South,188,3.0,10.0,88,0.00,,---,0.00,VWS V13.01,2013-07-31 17:51:00,
2013-07-31 12:56:00,80.5,77.0,29.97,South,189,2.0,10.0,89,0.00,,---,0.00,VWS V13.01,2013-07-31 17:56:00,
2013-07-31 13:01:00,80.8,77.6,29.97,South,188,0.0,10.0,90,0.00,,---,0.00,VWS V13.01,2013-07-31 18:01:00,
2013-07-31 13:06:00,81.3,77.8,29.97,South,189,4.0,5.0,89,0.00,,---,0.00,VWS V13.01,2013-07-31 18:06:00,
2013-07-31 13:11:00,81.8,77.9,29.96,South,189,2.0,5.0,88,0.00,,---,0.00,VWS V13.01,2013-07-31 18:11:00,
2013-07-31 13:16:00,81.6,77.4,29.96,South,188,0.0,5.0,87,0.00,,---,0.00,VWS V13.01,2013-07-31 18:16:00,